sensor_id;sensor_type;location;lat;lon;timestamp;P1;durP1;ratioP1;P2;durP2;ratioP2
50745;SDS011;36711;51.972;21.204;2022-08-19T00:02:16;9.30;;;6.50;;
50745;SDS011;36711;51.972;21.204;2022-08-19T00:04:44;9.90;;;6.50;;
50745;SDS011;36711;51.972;21.204;2022-08-19T00:07:14;9.40;;;7.10;;
50745;SDS011;36711;51.972;21.204;2022-08-19T00:09:42;11.30;;;7.00;;
50745;SDS011;36711;51.972;21.204;2022-08-19T00:12:10;10.90;;;6.80;;
50745;SDS011;36711;51.972;21.204;2022-08-19T00:14:38;10.00;;;5.90;;
50745;SDS011;36711;51.972;21.204;2022-08-19T00:17:06;10.70;;;6.00;;
50745;SDS011;36711;51.972;21.204;2022-08-19T00:19:36;9.00;;;6.40;;
50745;SDS011;36711;51.972;21.204;2022-08-19T00:22:03;13.00;;;7.00;;
50745;SDS011;36711;51.972;21.204;2022-08-19T00:24:32;8.60;;;6.90;;
50745;SDS011;36711;51.972;21.204;2022-08-19T00:27:01;7.70;;;6.40;;
50745;SDS011;36711;51.972;21.204;2022-08-19T00:29:49;9.80;;;6.70;;
50745;SDS011;36711;51.972;21.204;2022-08-19T00:32:19;9.00;;;6.40;;
50745;SDS011;36711;51.972;21.204;2022-08-19T00:34:47;11.20;;;6.80;;
50745;SDS011;36711;51.972;21.204;2022-08-19T00:37:15;14.70;;;7.40;;
50745;SDS011;36711;51.972;21.204;2022-08-19T00:39:42;9.90;;;7.30;;
50745;SDS011;36711;51.972;21.204;2022-08-19T00:42:10;15.70;;;7.20;;
50745;SDS011;36711;51.972;21.204;2022-08-19T00:44:42;12.20;;;6.70;;
50745;SDS011;36711;51.972;21.204;2022-08-19T00:47:10;10.10;;;6.50;;
50745;SDS011;36711;51.972;21.204;2022-08-19T00:49:41;10.40;;;6.80;;
50745;SDS011;36711;51.972;21.204;2022-08-19T00:52:15;9.60;;;7.10;;
50745;SDS011;36711;51.972;21.204;2022-08-19T00:54:47;14.30;;;7.50;;
50745;SDS011;36711;51.972;21.204;2022-08-19T00:57:20;13.20;;;7.60;;
50745;SDS011;36711;51.972;21.204;2022-08-19T00:59:54;10.20;;;6.20;;
50745;SDS011;36711;51.972;21.204;2022-08-19T01:02:29;10.70;;;7.10;;
50745;SDS011;36711;51.972;21.204;2022-08-19T01:04:59;10.50;;;7.20;;
50745;SDS011;36711;51.972;21.204;2022-08-19T01:07:28;13.70;;;7.80;;
50745;SDS011;36711;51.972;21.204;2022-08-19T01:10:09;14.40;;;6.90;;
50745;SDS011;36711;51.972;21.204;2022-08-19T01:12:39;13.10;;;7.30;;
50745;SDS011;36711;51.972;21.204;2022-08-19T01:15:09;9.30;;;6.60;;
50745;SDS011;36711;51.972;21.204;2022-08-19T01:17:39;12.10;;;7.00;;
50745;SDS011;36711;51.972;21.204;2022-08-19T01:20:12;9.30;;;6.80;;
50745;SDS011;36711;51.972;21.204;2022-08-19T01:22:49;12.40;;;7.40;;
50745;SDS011;36711;51.972;21.204;2022-08-19T01:25:22;11.40;;;6.80;;
50745;SDS011;36711;51.972;21.204;2022-08-19T01:27:55;9.10;;;6.50;;
50745;SDS011;36711;51.972;21.204;2022-08-19T01:30:33;8.20;;;6.80;;
50745;SDS011;36711;51.972;21.204;2022-08-19T01:33:02;14.40;;;7.30;;
50745;SDS011;36711;51.972;21.204;2022-08-19T01:35:32;11.70;;;7.40;;
50745;SDS011;36711;51.972;21.204;2022-08-19T01:38:03;10.50;;;7.30;;
50745;SDS011;36711;51.972;21.204;2022-08-19T01:40:36;11.20;;;6.60;;
50745;SDS011;36711;51.972;21.204;2022-08-19T01:43:05;9.20;;;7.00;;
50745;SDS011;36711;51.972;21.204;2022-08-19T01:45:33;8.50;;;6.20;;
50745;SDS011;36711;51.972;21.204;2022-08-19T01:48:02;11.90;;;6.90;;
50745;SDS011;36711;51.972;21.204;2022-08-19T01:50:31;12.20;;;6.90;;
50745;SDS011;36711;51.972;21.204;2022-08-19T01:53:01;7.40;;;5.80;;
50745;SDS011;36711;51.972;21.204;2022-08-19T01:55:37;13.40;;;6.10;;
50745;SDS011;36711;51.972;21.204;2022-08-19T01:58:09;14.20;;;6.70;;
50745;SDS011;36711;51.972;21.204;2022-08-19T02:00:42;11.60;;;7.80;;
50745;SDS011;36711;51.972;21.204;2022-08-19T02:03:10;10.50;;;6.70;;
50745;SDS011;36711;51.972;21.204;2022-08-19T02:05:39;8.50;;;6.30;;
50745;SDS011;36711;51.972;21.204;2022-08-19T02:08:08;13.30;;;6.20;;
50745;SDS011;36711;51.972;21.204;2022-08-19T02:10:41;10.40;;;6.50;;
50745;SDS011;36711;51.972;21.204;2022-08-19T02:13:11;13.00;;;6.70;;
50745;SDS011;36711;51.972;21.204;2022-08-19T02:15:40;12.40;;;6.90;;
50745;SDS011;36711;51.972;21.204;2022-08-19T02:18:08;11.70;;;7.10;;
50745;SDS011;36711;51.972;21.204;2022-08-19T02:20:37;14.60;;;7.20;;
50745;SDS011;36711;51.972;21.204;2022-08-19T02:23:05;8.80;;;6.60;;
50745;SDS011;36711;51.972;21.204;2022-08-19T02:25:46;10.60;;;7.00;;
50745;SDS011;36711;51.972;21.204;2022-08-19T02:28:15;11.30;;;7.40;;
50745;SDS011;36711;51.972;21.204;2022-08-19T02:30:45;10.10;;;7.40;;
50745;SDS011;36711;51.972;21.204;2022-08-19T02:33:14;13.30;;;7.50;;
50745;SDS011;36711;51.972;21.204;2022-08-19T02:35:43;10.00;;;7.50;;
50745;SDS011;36711;51.972;21.204;2022-08-19T02:38:12;12.20;;;6.70;;
50745;SDS011;36711;51.972;21.204;2022-08-19T02:41:03;11.80;;;6.40;;
50745;SDS011;36711;51.972;21.204;2022-08-19T02:43:34;9.50;;;6.40;;
50745;SDS011;36711;51.972;21.204;2022-08-19T02:46:11;10.90;;;6.60;;
50745;SDS011;36711;51.972;21.204;2022-08-19T02:48:48;11.60;;;5.50;;
50745;SDS011;36711;51.972;21.204;2022-08-19T02:51:18;8.90;;;5.90;;
50745;SDS011;36711;51.972;21.204;2022-08-19T02:53:49;7.60;;;5.90;;
50745;SDS011;36711;51.972;21.204;2022-08-19T02:56:18;10.70;;;6.80;;
50745;SDS011;36711;51.972;21.204;2022-08-19T02:58:47;9.30;;;6.80;;
50745;SDS011;36711;51.972;21.204;2022-08-19T03:01:19;9.70;;;7.00;;
50745;SDS011;36711;51.972;21.204;2022-08-19T03:03:51;8.50;;;6.30;;
50745;SDS011;36711;51.972;21.204;2022-08-19T03:06:19;10.60;;;6.10;;
50745;SDS011;36711;51.972;21.204;2022-08-19T03:08:47;14.00;;;6.10;;
50745;SDS011;36711;51.972;21.204;2022-08-19T03:11:20;9.40;;;6.50;;
50745;SDS011;36711;51.972;21.204;2022-08-19T03:13:50;10.60;;;6.80;;
50745;SDS011;36711;51.972;21.204;2022-08-19T03:16:19;10.70;;;5.90;;
50745;SDS011;36711;51.972;21.204;2022-08-19T03:18:51;9.00;;;5.70;;
50745;SDS011;36711;51.972;21.204;2022-08-19T03:21:22;14.10;;;6.60;;
50745;SDS011;36711;51.972;21.204;2022-08-19T03:23:55;8.60;;;6.60;;
50745;SDS011;36711;51.972;21.204;2022-08-19T03:26:25;11.10;;;6.20;;
50745;SDS011;36711;51.972;21.204;2022-08-19T03:28:52;9.60;;;5.90;;
50745;SDS011;36711;51.972;21.204;2022-08-19T03:31:26;8.30;;;6.20;;
50745;SDS011;36711;51.972;21.204;2022-08-19T03:34:15;6.90;;;6.20;;
50745;SDS011;36711;51.972;21.204;2022-08-19T03:36:45;10.40;;;7.00;;
50745;SDS011;36711;51.972;21.204;2022-08-19T03:39:14;10.60;;;6.60;;
50745;SDS011;36711;51.972;21.204;2022-08-19T03:41:44;11.20;;;6.60;;
50745;SDS011;36711;51.972;21.204;2022-08-19T03:44:16;10.40;;;7.10;;
50745;SDS011;36711;51.972;21.204;2022-08-19T03:46:52;15.20;;;7.80;;
50745;SDS011;36711;51.972;21.204;2022-08-19T03:49:24;12.00;;;8.20;;
50745;SDS011;36711;51.972;21.204;2022-08-19T03:51:55;10.50;;;7.20;;
50745;SDS011;36711;51.972;21.204;2022-08-19T03:54:24;9.50;;;7.40;;
50745;SDS011;36711;51.972;21.204;2022-08-19T03:56:53;13.10;;;6.80;;
50745;SDS011;36711;51.972;21.204;2022-08-19T03:59:29;17.90;;;7.30;;
50745;SDS011;36711;51.972;21.204;2022-08-19T04:01:59;9.60;;;6.70;;
50745;SDS011;36711;51.972;21.204;2022-08-19T04:04:29;13.40;;;7.30;;
50745;SDS011;36711;51.972;21.204;2022-08-19T04:06:58;14.20;;;7.20;;
50745;SDS011;36711;51.972;21.204;2022-08-19T04:09:26;8.40;;;6.50;;
50745;SDS011;36711;51.972;21.204;2022-08-19T04:11:55;14.10;;;6.60;;
50745;SDS011;36711;51.972;21.204;2022-08-19T04:14:26;13.40;;;6.80;;
50745;SDS011;36711;51.972;21.204;2022-08-19T04:16:58;11.10;;;7.20;;
50745;SDS011;36711;51.972;21.204;2022-08-19T04:19:29;13.40;;;7.00;;
50745;SDS011;36711;51.972;21.204;2022-08-19T04:21:57;10.80;;;7.30;;
50745;SDS011;36711;51.972;21.204;2022-08-19T04:24:25;13.00;;;7.50;;
50745;SDS011;36711;51.972;21.204;2022-08-19T04:26:53;18.20;;;8.10;;
50745;SDS011;36711;51.972;21.204;2022-08-19T04:29:22;11.90;;;8.30;;
50745;SDS011;36711;51.972;21.204;2022-08-19T04:31:53;14.60;;;8.20;;
50745;SDS011;36711;51.972;21.204;2022-08-19T04:34:23;15.40;;;7.50;;
50745;SDS011;36711;51.972;21.204;2022-08-19T04:36:53;10.80;;;7.00;;
50745;SDS011;36711;51.972;21.204;2022-08-19T04:39:27;11.60;;;7.50;;
50745;SDS011;36711;51.972;21.204;2022-08-19T04:42:16;16.70;;;8.20;;
50745;SDS011;36711;51.972;21.204;2022-08-19T04:45:04;13.60;;;8.30;;
50745;SDS011;36711;51.972;21.204;2022-08-19T04:47:43;12.80;;;8.40;;
50745;SDS011;36711;51.972;21.204;2022-08-19T04:50:25;13.00;;;7.70;;
50745;SDS011;36711;51.972;21.204;2022-08-19T04:52:53;15.30;;;7.80;;
50745;SDS011;36711;51.972;21.204;2022-08-19T04:55:23;10.80;;;7.20;;
50745;SDS011;36711;51.972;21.204;2022-08-19T04:57:53;11.20;;;7.20;;
50745;SDS011;36711;51.972;21.204;2022-08-19T05:00:22;17.90;;;8.70;;
50745;SDS011;36711;51.972;21.204;2022-08-19T05:02:50;10.70;;;7.50;;
50745;SDS011;36711;51.972;21.204;2022-08-19T05:05:18;12.00;;;7.40;;
50745;SDS011;36711;51.972;21.204;2022-08-19T05:07:47;12.30;;;6.90;;
50745;SDS011;36711;51.972;21.204;2022-08-19T05:10:14;9.90;;;6.90;;
50745;SDS011;36711;51.972;21.204;2022-08-19T05:12:42;15.40;;;6.80;;
50745;SDS011;36711;51.972;21.204;2022-08-19T05:15:10;17.90;;;7.50;;
50745;SDS011;36711;51.972;21.204;2022-08-19T05:17:38;10.80;;;8.00;;
50745;SDS011;36711;51.972;21.204;2022-08-19T05:20:26;12.40;;;7.50;;
50745;SDS011;36711;51.972;21.204;2022-08-19T05:23:12;10.20;;;6.40;;
50745;SDS011;36711;51.972;21.204;2022-08-19T05:25:49;21.30;;;6.90;;
50745;SDS011;36711;51.972;21.204;2022-08-19T05:28:19;18.30;;;7.00;;
50745;SDS011;36711;51.972;21.204;2022-08-19T05:30:47;16.60;;;7.30;;
50745;SDS011;36711;51.972;21.204;2022-08-19T05:33:17;15.90;;;7.50;;
50745;SDS011;36711;51.972;21.204;2022-08-19T05:35:46;18.20;;;7.70;;
50745;SDS011;36711;51.972;21.204;2022-08-19T05:38:18;18.80;;;7.70;;
50745;SDS011;36711;51.972;21.204;2022-08-19T05:40:46;11.00;;;6.40;;
50745;SDS011;36711;51.972;21.204;2022-08-19T05:43:15;11.90;;;6.40;;
50745;SDS011;36711;51.972;21.204;2022-08-19T05:45:43;11.00;;;6.40;;
50745;SDS011;36711;51.972;21.204;2022-08-19T05:48:11;12.00;;;6.80;;
50745;SDS011;36711;51.972;21.204;2022-08-19T05:50:40;14.60;;;7.10;;
50745;SDS011;36711;51.972;21.204;2022-08-19T05:53:08;11.60;;;7.00;;
50745;SDS011;36711;51.972;21.204;2022-08-19T05:55:36;15.00;;;7.00;;
50745;SDS011;36711;51.972;21.204;2022-08-19T05:58:06;15.00;;;6.90;;
50745;SDS011;36711;51.972;21.204;2022-08-19T06:00:37;13.30;;;5.80;;
50745;SDS011;36711;51.972;21.204;2022-08-19T06:03:05;9.80;;;5.70;;
50745;SDS011;36711;51.972;21.204;2022-08-19T06:05:40;16.50;;;6.20;;
50745;SDS011;36711;51.972;21.204;2022-08-19T06:08:18;8.20;;;6.10;;
50745;SDS011;36711;51.972;21.204;2022-08-19T06:11:21;11.50;;;6.30;;
50745;SDS011;36711;51.972;21.204;2022-08-19T06:13:50;10.10;;;6.30;;
50745;SDS011;36711;51.972;21.204;2022-08-19T06:16:26;10.20;;;6.70;;
50745;SDS011;36711;51.972;21.204;2022-08-19T06:18:54;13.20;;;6.90;;
50745;SDS011;36711;51.972;21.204;2022-08-19T06:21:25;9.20;;;7.00;;
50745;SDS011;36711;51.972;21.204;2022-08-19T06:23:57;12.10;;;5.50;;
50745;SDS011;36711;51.972;21.204;2022-08-19T06:26:25;7.70;;;5.00;;
50745;SDS011;36711;51.972;21.204;2022-08-19T06:28:53;12.40;;;5.50;;
50745;SDS011;36711;51.972;21.204;2022-08-19T06:31:23;11.20;;;6.40;;
50745;SDS011;36711;51.972;21.204;2022-08-19T06:33:52;8.80;;;6.20;;
50745;SDS011;36711;51.972;21.204;2022-08-19T06:36:21;18.00;;;6.40;;
50745;SDS011;36711;51.972;21.204;2022-08-19T06:38:54;8.40;;;6.10;;
50745;SDS011;36711;51.972;21.204;2022-08-19T06:41:24;12.90;;;7.00;;
50745;SDS011;36711;51.972;21.204;2022-08-19T06:43:53;10.30;;;6.10;;
50745;SDS011;36711;51.972;21.204;2022-08-19T06:46:23;11.30;;;7.10;;
50745;SDS011;36711;51.972;21.204;2022-08-19T06:48:51;12.00;;;6.40;;
50745;SDS011;36711;51.972;21.204;2022-08-19T06:51:20;11.50;;;6.20;;
50745;SDS011;36711;51.972;21.204;2022-08-19T06:53:51;9.80;;;5.40;;
50745;SDS011;36711;51.972;21.204;2022-08-19T06:56:24;13.10;;;5.60;;
50745;SDS011;36711;51.972;21.204;2022-08-19T06:58:58;11.50;;;5.00;;
50745;SDS011;36711;51.972;21.204;2022-08-19T07:01:26;11.00;;;6.00;;
50745;SDS011;36711;51.972;21.204;2022-08-19T07:03:54;8.30;;;5.80;;
50745;SDS011;36711;51.972;21.204;2022-08-19T07:06:22;12.80;;;6.30;;
50745;SDS011;36711;51.972;21.204;2022-08-19T07:09:11;13.30;;;5.80;;
50745;SDS011;36711;51.972;21.204;2022-08-19T07:11:45;16.00;;;6.70;;
50745;SDS011;36711;51.972;21.204;2022-08-19T07:14:15;11.70;;;6.40;;
50745;SDS011;36711;51.972;21.204;2022-08-19T07:16:48;11.30;;;6.60;;
50745;SDS011;36711;51.972;21.204;2022-08-19T07:19:18;10.90;;;6.00;;
50745;SDS011;36711;51.972;21.204;2022-08-19T07:21:47;21.90;;;6.40;;
50745;SDS011;36711;51.972;21.204;2022-08-19T07:24:16;15.30;;;6.10;;
50745;SDS011;36711;51.972;21.204;2022-08-19T07:26:45;8.90;;;6.00;;
50745;SDS011;36711;51.972;21.204;2022-08-19T07:29:19;9.80;;;5.80;;
50745;SDS011;36711;51.972;21.204;2022-08-19T07:31:54;10.60;;;5.00;;
50745;SDS011;36711;51.972;21.204;2022-08-19T07:34:27;17.90;;;5.40;;
50745;SDS011;36711;51.972;21.204;2022-08-19T07:36:56;17.00;;;5.60;;
50745;SDS011;36711;51.972;21.204;2022-08-19T07:39:26;11.30;;;5.70;;
50745;SDS011;36711;51.972;21.204;2022-08-19T07:41:57;9.80;;;5.40;;
50745;SDS011;36711;51.972;21.204;2022-08-19T07:44:27;9.10;;;5.70;;
50745;SDS011;36711;51.972;21.204;2022-08-19T07:46:56;16.30;;;5.80;;
50745;SDS011;36711;51.972;21.204;2022-08-19T07:49:24;11.90;;;5.70;;
50745;SDS011;36711;51.972;21.204;2022-08-19T07:51:53;16.80;;;6.10;;
50745;SDS011;36711;51.972;21.204;2022-08-19T07:54:24;10.00;;;5.80;;
50745;SDS011;36711;51.972;21.204;2022-08-19T07:56:54;15.10;;;5.60;;
50745;SDS011;36711;51.972;21.204;2022-08-19T07:59:23;11.60;;;5.10;;
50745;SDS011;36711;51.972;21.204;2022-08-19T08:01:51;7.20;;;5.20;;
50745;SDS011;36711;51.972;21.204;2022-08-19T08:04:19;9.40;;;4.30;;
50745;SDS011;36711;51.972;21.204;2022-08-19T08:07:06;9.00;;;4.90;;
50745;SDS011;36711;51.972;21.204;2022-08-19T08:09:58;10.50;;;4.60;;
50745;SDS011;36711;51.972;21.204;2022-08-19T08:12:31;12.80;;;5.10;;
50745;SDS011;36711;51.972;21.204;2022-08-19T08:15:07;13.10;;;5.10;;
50745;SDS011;36711;51.972;21.204;2022-08-19T08:17:39;10.80;;;5.10;;
50745;SDS011;36711;51.972;21.204;2022-08-19T08:20:17;9.20;;;4.70;;
50745;SDS011;36711;51.972;21.204;2022-08-19T08:22:47;7.90;;;5.20;;
50745;SDS011;36711;51.972;21.204;2022-08-19T08:25:35;11.40;;;5.20;;
50745;SDS011;36711;51.972;21.204;2022-08-19T08:28:03;10.60;;;5.20;;
50745;SDS011;36711;51.972;21.204;2022-08-19T08:30:32;24.10;;;6.50;;
50745;SDS011;36711;51.972;21.204;2022-08-19T08:33:02;10.10;;;5.40;;
50745;SDS011;36711;51.972;21.204;2022-08-19T08:35:30;6.70;;;5.10;;
50745;SDS011;36711;51.972;21.204;2022-08-19T08:37:58;107.80;;;10.00;;
50745;SDS011;36711;51.972;21.204;2022-08-19T08:43:13;8.60;;;4.80;;
50745;SDS011;36711;51.972;21.204;2022-08-19T08:46:00;10.20;;;5.10;;
50745;SDS011;36711;51.972;21.204;2022-08-19T08:51:03;10.60;;;4.50;;
50745;SDS011;36711;51.972;21.204;2022-08-19T08:53:35;8.80;;;4.40;;
50745;SDS011;36711;51.972;21.204;2022-08-19T08:56:08;7.40;;;4.30;;
50745;SDS011;36711;51.972;21.204;2022-08-19T08:58:45;43.60;;;5.40;;
50745;SDS011;36711;51.972;21.204;2022-08-19T09:01:21;8.70;;;4.20;;
50745;SDS011;36711;51.972;21.204;2022-08-19T09:03:49;13.30;;;4.30;;
50745;SDS011;36711;51.972;21.204;2022-08-19T09:09:12;10.70;;;4.20;;
50745;SDS011;36711;51.972;21.204;2022-08-19T09:17:09;12.30;;;3.60;;
50745;SDS011;36711;51.972;21.204;2022-08-19T09:19:51;43.50;;;6.20;;
50745;SDS011;36711;51.972;21.204;2022-08-19T09:22:21;11.40;;;3.60;;
50745;SDS011;36711;51.972;21.204;2022-08-19T09:24:54;4.70;;;3.20;;
50745;SDS011;36711;51.972;21.204;2022-08-19T09:27:22;7.80;;;3.10;;
50745;SDS011;36711;51.972;21.204;2022-08-19T09:30:14;10.90;;;3.00;;
50745;SDS011;36711;51.972;21.204;2022-08-19T09:32:51;5.60;;;2.90;;
50745;SDS011;36711;51.972;21.204;2022-08-19T09:35:21;7.40;;;2.70;;
50745;SDS011;36711;51.972;21.204;2022-08-19T09:37:50;10.50;;;3.00;;
50745;SDS011;36711;51.972;21.204;2022-08-19T09:40:28;8.20;;;2.60;;
50745;SDS011;36711;51.972;21.204;2022-08-19T09:43:04;6.20;;;2.60;;
50745;SDS011;36711;51.972;21.204;2022-08-19T09:45:39;12.90;;;2.60;;
50745;SDS011;36711;51.972;21.204;2022-08-19T09:48:07;11.20;;;2.90;;
50745;SDS011;36711;51.972;21.204;2022-08-19T09:50:35;12.40;;;3.30;;
50745;SDS011;36711;51.972;21.204;2022-08-19T09:53:18;10.90;;;2.90;;
50745;SDS011;36711;51.972;21.204;2022-08-19T09:55:52;10.70;;;3.00;;
50745;SDS011;36711;51.972;21.204;2022-08-19T09:58:22;5.80;;;2.80;;
50745;SDS011;36711;51.972;21.204;2022-08-19T10:00:55;11.10;;;3.10;;
50745;SDS011;36711;51.972;21.204;2022-08-19T10:03:25;9.40;;;2.80;;
50745;SDS011;36711;51.972;21.204;2022-08-19T10:05:57;6.50;;;2.80;;
50745;SDS011;36711;51.972;21.204;2022-08-19T10:08:28;70.00;;;5.60;;
50745;SDS011;36711;51.972;21.204;2022-08-19T10:10:58;12.80;;;3.20;;
50745;SDS011;36711;51.972;21.204;2022-08-19T10:13:47;11.40;;;2.90;;
50745;SDS011;36711;51.972;21.204;2022-08-19T10:16:17;7.20;;;3.00;;
50745;SDS011;36711;51.972;21.204;2022-08-19T10:18:49;8.30;;;2.50;;
50745;SDS011;36711;51.972;21.204;2022-08-19T10:21:26;4.00;;;2.50;;
50745;SDS011;36711;51.972;21.204;2022-08-19T10:23:59;12.10;;;3.00;;
50745;SDS011;36711;51.972;21.204;2022-08-19T10:26:32;4.80;;;2.70;;
50745;SDS011;36711;51.972;21.204;2022-08-19T10:29:02;7.90;;;3.00;;
50745;SDS011;36711;51.972;21.204;2022-08-19T10:31:35;8.50;;;2.60;;
50745;SDS011;36711;51.972;21.204;2022-08-19T10:34:24;6.70;;;2.80;;
50745;SDS011;36711;51.972;21.204;2022-08-19T10:36:55;6.10;;;2.90;;
50745;SDS011;36711;51.972;21.204;2022-08-19T10:39:29;10.90;;;2.90;;
50745;SDS011;36711;51.972;21.204;2022-08-19T10:42:09;12.50;;;3.40;;
50745;SDS011;36711;51.972;21.204;2022-08-19T10:44:38;7.40;;;2.80;;
50745;SDS011;36711;51.972;21.204;2022-08-19T10:47:05;6.10;;;3.40;;
50745;SDS011;36711;51.972;21.204;2022-08-19T10:49:52;8.40;;;3.10;;
50745;SDS011;36711;51.972;21.204;2022-08-19T10:52:40;12.30;;;3.10;;
50745;SDS011;36711;51.972;21.204;2022-08-19T10:55:18;6.40;;;2.80;;
50745;SDS011;36711;51.972;21.204;2022-08-19T10:58:13;38.60;;;4.40;;
50745;SDS011;36711;51.972;21.204;2022-08-19T11:00:51;78.70;;;5.80;;
50745;SDS011;36711;51.972;21.204;2022-08-19T11:03:20;4.90;;;2.90;;
50745;SDS011;36711;51.972;21.204;2022-08-19T11:06:01;6.50;;;2.70;;
50745;SDS011;36711;51.972;21.204;2022-08-19T11:08:33;5.60;;;2.60;;
50745;SDS011;36711;51.972;21.204;2022-08-19T11:11:02;9.50;;;2.30;;
50745;SDS011;36711;51.972;21.204;2022-08-19T11:13:31;5.80;;;2.60;;
50745;SDS011;36711;51.972;21.204;2022-08-19T11:16:04;6.40;;;3.10;;
50745;SDS011;36711;51.972;21.204;2022-08-19T11:18:39;8.70;;;2.60;;
50745;SDS011;36711;51.972;21.204;2022-08-19T11:23:47;6.90;;;2.60;;
50745;SDS011;36711;51.972;21.204;2022-08-19T11:26:16;8.30;;;2.60;;
50745;SDS011;36711;51.972;21.204;2022-08-19T11:28:46;11.70;;;2.60;;
50745;SDS011;36711;51.972;21.204;2022-08-19T11:31:18;8.40;;;2.60;;
50745;SDS011;36711;51.972;21.204;2022-08-19T11:33:50;5.70;;;2.60;;
50745;SDS011;36711;51.972;21.204;2022-08-19T11:36:22;10.90;;;3.00;;
50745;SDS011;36711;51.972;21.204;2022-08-19T11:38:50;4.90;;;2.40;;
50745;SDS011;36711;51.972;21.204;2022-08-19T11:41:19;7.70;;;2.40;;
50745;SDS011;36711;51.972;21.204;2022-08-19T11:43:50;4.60;;;2.40;;
50745;SDS011;36711;51.972;21.204;2022-08-19T11:46:20;13.40;;;2.90;;
50745;SDS011;36711;51.972;21.204;2022-08-19T11:48:49;8.10;;;2.60;;
50745;SDS011;36711;51.972;21.204;2022-08-19T11:51:19;5.40;;;2.70;;
50745;SDS011;36711;51.972;21.204;2022-08-19T11:53:49;11.30;;;2.60;;
50745;SDS011;36711;51.972;21.204;2022-08-19T11:56:18;7.10;;;2.30;;
50745;SDS011;36711;51.972;21.204;2022-08-19T11:58:46;8.60;;;2.40;;
50745;SDS011;36711;51.972;21.204;2022-08-19T12:01:15;6.00;;;2.70;;
50745;SDS011;36711;51.972;21.204;2022-08-19T12:03:45;7.60;;;2.50;;
50745;SDS011;36711;51.972;21.204;2022-08-19T12:06:15;4.80;;;2.60;;
50745;SDS011;36711;51.972;21.204;2022-08-19T12:08:45;8.20;;;2.80;;
50745;SDS011;36711;51.972;21.204;2022-08-19T12:11:14;9.00;;;2.60;;
50745;SDS011;36711;51.972;21.204;2022-08-19T12:13:43;7.20;;;2.70;;
50745;SDS011;36711;51.972;21.204;2022-08-19T12:16:16;6.10;;;2.70;;
50745;SDS011;36711;51.972;21.204;2022-08-19T12:18:45;7.10;;;2.80;;
50745;SDS011;36711;51.972;21.204;2022-08-19T12:21:14;7.10;;;2.80;;
50745;SDS011;36711;51.972;21.204;2022-08-19T12:23:43;6.80;;;2.90;;
50745;SDS011;36711;51.972;21.204;2022-08-19T12:26:12;6.40;;;2.70;;
50745;SDS011;36711;51.972;21.204;2022-08-19T12:28:40;9.30;;;2.60;;
50745;SDS011;36711;51.972;21.204;2022-08-19T12:31:08;10.30;;;3.20;;
50745;SDS011;36711;51.972;21.204;2022-08-19T12:33:40;7.50;;;3.00;;
50745;SDS011;36711;51.972;21.204;2022-08-19T12:36:09;9.60;;;3.00;;
50745;SDS011;36711;51.972;21.204;2022-08-19T12:38:40;9.80;;;2.60;;
50745;SDS011;36711;51.972;21.204;2022-08-19T12:41:09;8.90;;;2.90;;
50745;SDS011;36711;51.972;21.204;2022-08-19T12:43:39;15.60;;;3.00;;
50745;SDS011;36711;51.972;21.204;2022-08-19T12:46:07;10.80;;;3.10;;
50745;SDS011;36711;51.972;21.204;2022-08-19T12:48:38;8.40;;;2.70;;
50745;SDS011;36711;51.972;21.204;2022-08-19T12:51:10;11.80;;;2.90;;
50745;SDS011;36711;51.972;21.204;2022-08-19T12:53:41;22.50;;;3.70;;
50745;SDS011;36711;51.972;21.204;2022-08-19T12:56:10;12.50;;;3.30;;
50745;SDS011;36711;51.972;21.204;2022-08-19T12:58:40;17.70;;;2.80;;
50745;SDS011;36711;51.972;21.204;2022-08-19T13:01:17;18.10;;;3.00;;
50745;SDS011;36711;51.972;21.204;2022-08-19T13:03:49;12.50;;;3.50;;
50745;SDS011;36711;51.972;21.204;2022-08-19T13:06:20;13.10;;;3.00;;
50745;SDS011;36711;51.972;21.204;2022-08-19T13:08:48;13.10;;;2.90;;
50745;SDS011;36711;51.972;21.204;2022-08-19T13:11:18;10.40;;;3.00;;
50745;SDS011;36711;51.972;21.204;2022-08-19T13:13:48;30.40;;;3.70;;
50745;SDS011;36711;51.972;21.204;2022-08-19T13:16:18;36.20;;;4.10;;
50745;SDS011;36711;51.972;21.204;2022-08-19T13:18:47;28.50;;;3.50;;
50745;SDS011;36711;51.972;21.204;2022-08-19T13:21:16;20.10;;;3.40;;
50745;SDS011;36711;51.972;21.204;2022-08-19T13:23:49;20.40;;;3.30;;
50745;SDS011;36711;51.972;21.204;2022-08-19T13:26:18;11.30;;;3.10;;
50745;SDS011;36711;51.972;21.204;2022-08-19T13:28:46;4.90;;;2.80;;
50745;SDS011;36711;51.972;21.204;2022-08-19T13:31:34;7.40;;;3.00;;
50745;SDS011;36711;51.972;21.204;2022-08-19T13:34:28;18.60;;;3.40;;
50745;SDS011;36711;51.972;21.204;2022-08-19T13:37:01;12.70;;;3.10;;
50745;SDS011;36711;51.972;21.204;2022-08-19T13:39:31;13.50;;;3.20;;
50745;SDS011;36711;51.972;21.204;2022-08-19T13:42:01;22.80;;;3.20;;
50745;SDS011;36711;51.972;21.204;2022-08-19T13:44:31;11.30;;;3.00;;
50745;SDS011;36711;51.972;21.204;2022-08-19T13:47:00;7.10;;;3.40;;
50745;SDS011;36711;51.972;21.204;2022-08-19T13:49:34;6.40;;;2.80;;
50745;SDS011;36711;51.972;21.204;2022-08-19T13:52:04;6.50;;;2.80;;
50745;SDS011;36711;51.972;21.204;2022-08-19T13:54:32;11.00;;;2.90;;
50745;SDS011;36711;51.972;21.204;2022-08-19T13:57:00;10.10;;;2.90;;
50745;SDS011;36711;51.972;21.204;2022-08-19T13:59:28;23.50;;;4.10;;
50745;SDS011;36711;51.972;21.204;2022-08-19T14:01:59;5.80;;;3.00;;
50745;SDS011;36711;51.972;21.204;2022-08-19T14:04:27;3.20;;;2.60;;
50745;SDS011;36711;51.972;21.204;2022-08-19T14:06:55;12.80;;;2.70;;
50745;SDS011;36711;51.972;21.204;2022-08-19T14:09:23;9.20;;;2.70;;
50745;SDS011;36711;51.972;21.204;2022-08-19T14:11:50;10.00;;;2.90;;
50745;SDS011;36711;51.972;21.204;2022-08-19T14:14:18;6.20;;;2.60;;
50745;SDS011;36711;51.972;21.204;2022-08-19T14:16:46;9.30;;;2.80;;
50745;SDS011;36711;51.972;21.204;2022-08-19T14:19:14;5.50;;;2.60;;
50745;SDS011;36711;51.972;21.204;2022-08-19T14:21:42;6.50;;;2.60;;
50745;SDS011;36711;51.972;21.204;2022-08-19T14:24:10;9.40;;;2.50;;
50745;SDS011;36711;51.972;21.204;2022-08-19T14:26:38;5.80;;;2.70;;
50745;SDS011;36711;51.972;21.204;2022-08-19T14:29:06;7.30;;;2.80;;
50745;SDS011;36711;51.972;21.204;2022-08-19T14:31:33;8.90;;;2.50;;
50745;SDS011;36711;51.972;21.204;2022-08-19T14:34:01;4.70;;;2.60;;
50745;SDS011;36711;51.972;21.204;2022-08-19T14:36:29;26.90;;;3.20;;
50745;SDS011;36711;51.972;21.204;2022-08-19T14:39:05;13.00;;;3.10;;
50745;SDS011;36711;51.972;21.204;2022-08-19T14:41:32;8.10;;;2.80;;
50745;SDS011;36711;51.972;21.204;2022-08-19T14:44:00;9.20;;;2.50;;
50745;SDS011;36711;51.972;21.204;2022-08-19T14:46:28;16.30;;;3.10;;
50745;SDS011;36711;51.972;21.204;2022-08-19T14:48:56;18.50;;;3.20;;
50745;SDS011;36711;51.972;21.204;2022-08-19T14:51:26;8.30;;;2.80;;
50745;SDS011;36711;51.972;21.204;2022-08-19T14:53:54;6.80;;;2.80;;
50745;SDS011;36711;51.972;21.204;2022-08-19T14:56:23;8.20;;;2.80;;
50745;SDS011;36711;51.972;21.204;2022-08-19T14:58:53;5.00;;;2.80;;
50745;SDS011;36711;51.972;21.204;2022-08-19T15:01:21;5.70;;;2.50;;
50745;SDS011;36711;51.972;21.204;2022-08-19T15:03:50;5.80;;;2.40;;
50745;SDS011;36711;51.972;21.204;2022-08-19T15:06:21;11.50;;;2.90;;
50745;SDS011;36711;51.972;21.204;2022-08-19T15:08:50;9.50;;;2.80;;